createdAt,value
2018-04-08T00:01:12.370Z,11.40
2018-04-08T00:03:40.690Z,12.97
2018-04-08T00:06:08.217Z,12.90
2018-04-08T00:08:35.755Z,12.10
2018-04-08T00:11:04.070Z,10.93
2018-04-08T00:13:31.628Z,12.30
2018-04-08T00:15:59.187Z,12.87
2018-04-08T00:18:26.682Z,11.13
2018-04-08T00:20:54.250Z,10.83
2018-04-08T00:23:21.757Z,11.87
2018-04-08T00:25:49.372Z,11.73
2018-04-08T00:28:17.026Z,11.50
2018-04-08T00:30:44.641Z,11.70
2018-04-08T00:33:12.167Z,9.47
2018-04-08T00:35:40.443Z,10.20
2018-04-08T00:38:08.763Z,11.90
2018-04-08T00:40:36.295Z,11.07
2018-04-08T00:43:03.834Z,11.00
2018-04-08T00:45:31.385Z,11.07
2018-04-08T00:47:59.798Z,11.43
2018-04-08T00:50:27.336Z,11.30
2018-04-08T00:52:54.866Z,12.00
2018-04-08T00:55:22.544Z,10.70
2018-04-08T00:57:50.937Z,11.73
2018-04-08T01:00:19.215Z,10.90
2018-04-08T01:02:46.772Z,9.83
2018-04-08T01:05:14.274Z,11.53
2018-04-08T01:07:41.785Z,13.10
2018-04-08T01:10:09.899Z,10.87
2018-04-08T01:12:37.419Z,11.53
2018-04-08T01:15:04.962Z,10.13
2018-04-08T01:17:32.488Z,11.23
2018-04-08T01:20:00.292Z,12.07
2018-04-08T01:22:27.797Z,12.10
2018-04-08T01:24:55.320Z,13.13
2018-04-08T01:27:22.847Z,12.23
2018-04-08T01:29:51.126Z,11.37
2018-04-08T01:32:19.570Z,11.80
2018-04-08T01:34:47.085Z,12.13
2018-04-08T01:37:14.639Z,12.80
2018-04-08T01:39:42.298Z,12.50
2018-04-08T01:42:09.835Z,12.10
2018-04-08T01:44:38.160Z,10.87
2018-04-08T01:47:05.690Z,11.47
2018-04-08T01:49:33.355Z,10.60
2018-04-08T01:52:00.867Z,11.43
2018-04-08T01:54:28.686Z,11.33
2018-04-08T01:56:56.197Z,12.77
2018-04-08T01:59:24.634Z,11.93
2018-04-08T02:01:52.169Z,11.90
2018-04-08T02:04:20.479Z,11.53
2018-04-08T02:06:48.004Z,11.77
2018-04-08T02:09:15.530Z,10.20
2018-04-08T02:11:43.101Z,11.07
2018-04-08T02:14:11.399Z,10.50
2018-04-08T02:16:38.937Z,11.33
2018-04-08T02:19:07.242Z,10.30
2018-04-08T02:21:34.745Z,10.63
2018-04-08T02:24:02.360Z,10.23
2018-04-08T02:26:29.911Z,10.13
2018-04-08T02:28:57.447Z,11.30
2018-04-08T02:31:25.759Z,11.03
2018-04-08T02:33:53.286Z,10.90
2018-04-08T02:36:21.546Z,10.33
2018-04-08T02:38:49.868Z,11.20
2018-04-08T02:41:17.419Z,11.77
2018-04-08T02:43:45.048Z,9.60
2018-04-08T02:46:13.336Z,11.50
2018-04-08T02:48:40.839Z,10.70
2018-04-08T02:51:08.470Z,11.30
2018-04-08T02:53:35.986Z,10.60
2018-04-08T02:56:03.875Z,10.10
2018-04-08T02:58:32.136Z,12.47
2018-04-08T03:01:00.443Z,15.37
2018-04-08T03:03:27.959Z,27.23
2018-04-08T03:05:56.219Z,17.30
2018-04-08T03:08:23.776Z,16.00
2018-04-08T03:10:51.361Z,12.03
2018-04-08T03:13:19.743Z,10.90
2018-04-08T03:15:48.068Z,11.00
2018-04-08T03:18:15.572Z,10.50
2018-04-08T03:20:43.899Z,10.20
2018-04-08T03:23:11.439Z,10.00
2018-04-08T03:25:39.066Z,24.93
2018-04-08T03:28:07.395Z,14.37
2018-04-08T03:30:34.900Z,14.70
2018-04-08T03:33:02.404Z,11.33
2018-04-08T03:35:29.917Z,11.47
2018-04-08T03:37:58.225Z,10.70
2018-04-08T03:40:25.739Z,11.73
2018-04-08T03:42:54.017Z,10.50
2018-04-08T03:45:22.334Z,10.30
2018-04-08T03:47:49.869Z,11.73
2018-04-08T03:50:18.143Z,11.20
2018-04-08T03:52:45.680Z,9.97
2018-04-08T03:55:13.986Z,10.70
2018-04-08T03:57:41.514Z,10.10
2018-04-08T04:00:09.922Z,10.03
2018-04-08T04:02:37.493Z,9.60
2018-04-08T04:05:05.033Z,10.50
2018-04-08T04:07:32.614Z,10.73
2018-04-08T04:10:00.164Z,10.20
2018-04-08T04:12:27.717Z,10.77
2018-04-08T04:14:55.228Z,10.20
2018-04-08T04:17:22.955Z,10.67
2018-04-08T04:20:02.214Z,13.80
2018-04-08T04:22:41.619Z,36.90
2018-04-08T04:25:26.055Z,26.30
2018-04-08T04:27:53.597Z,16.50
2018-04-08T04:30:21.888Z,14.90
2018-04-08T04:32:49.414Z,13.80
2018-04-08T04:35:16.919Z,12.10
2018-04-08T04:37:44.504Z,10.90
2018-04-08T04:40:12.059Z,11.13
2018-04-08T04:42:39.666Z,10.47
2018-04-08T04:45:07.538Z,11.57
2018-04-08T04:47:35.043Z,9.97
2018-04-08T04:50:02.573Z,10.90
2018-04-08T04:52:30.076Z,9.43
2018-04-08T04:54:57.642Z,10.27
2018-04-08T04:57:25.942Z,11.47
2018-04-08T04:59:53.523Z,9.90
2018-04-08T05:02:21.061Z,10.63
2018-04-08T05:04:48.574Z,10.40
2018-04-08T05:07:16.455Z,10.00
2018-04-08T05:09:44.030Z,10.67
2018-04-08T05:12:12.447Z,10.20
2018-04-08T05:14:39.975Z,10.27
2018-04-08T05:17:07.487Z,9.30
2018-04-08T05:19:34.988Z,10.90
2018-04-08T05:22:02.865Z,10.40
2018-04-08T05:24:30.394Z,11.00
2018-04-08T05:26:57.948Z,11.90
2018-04-08T05:29:25.481Z,9.60
2018-04-08T05:31:53.022Z,10.50
2018-04-08T05:34:20.556Z,9.97
2018-04-08T05:36:48.069Z,9.80
2018-04-08T05:39:15.604Z,10.03
2018-04-08T05:41:43.134Z,10.10
2018-04-08T05:44:10.683Z,10.77
2018-04-08T05:46:38.219Z,11.07
2018-04-08T05:49:06.531Z,10.30
2018-04-08T05:51:34.044Z,10.27
2018-04-08T05:54:01.555Z,11.30
2018-04-08T05:56:29.112Z,9.60
2018-04-08T05:58:56.665Z,10.33
2018-04-08T06:01:24.159Z,9.70
2018-04-08T06:03:51.684Z,10.63
2018-04-08T06:06:19.224Z,8.30
2018-04-08T06:08:46.801Z,8.67
2018-04-08T06:11:14.392Z,10.73
2018-04-08T06:13:41.885Z,9.67
2018-04-08T06:16:10.272Z,9.88
2018-04-08T06:18:38.262Z,10.53
2018-04-08T06:21:05.782Z,8.63
2018-04-08T06:23:33.360Z,8.80
2018-04-08T06:26:00.911Z,8.33
2018-04-08T06:28:29.197Z,8.90
2018-04-08T06:30:56.706Z,8.23
2018-04-08T06:33:24.537Z,10.63
2018-04-08T06:35:52.040Z,8.63
2018-04-08T06:38:19.585Z,8.33
2018-04-08T06:40:47.106Z,9.67
2018-04-08T06:43:14.633Z,9.40
2018-04-08T06:45:42.993Z,9.53
2018-04-08T06:48:11.311Z,9.20
2018-04-08T06:50:38.838Z,9.40
2018-04-08T06:53:07.112Z,9.50
2018-04-08T06:55:35.428Z,9.73
2018-04-08T06:58:02.967Z,8.83
2018-04-08T07:00:30.462Z,9.93
2018-04-08T07:02:58.063Z,10.00
2018-04-08T07:05:25.577Z,9.53
2018-04-08T07:07:53.116Z,10.23
2018-04-08T07:10:20.668Z,9.57
2018-04-08T07:12:48.229Z,8.80
2018-04-08T07:15:15.759Z,8.33
2018-04-08T07:17:44.068Z,11.00
2018-04-08T07:20:11.586Z,8.90
2018-04-08T07:22:39.894Z,10.07
2018-04-08T07:25:07.457Z,9.80
2018-04-08T07:27:34.972Z,9.27
2018-04-08T07:30:03.253Z,10.43
2018-04-08T07:32:31.861Z,10.63
2018-04-08T07:34:59.454Z,8.80
2018-04-08T07:37:29.143Z,10.33
2018-04-08T07:39:57.724Z,9.50
2018-04-08T07:42:25.240Z,10.30
2018-04-08T07:44:53.515Z,10.50
2018-04-08T07:47:22.599Z,10.73
2018-04-08T07:49:50.089Z,9.20
2018-04-08T07:52:17.826Z,9.70
2018-04-08T07:54:46.537Z,10.20
2018-04-08T07:57:14.802Z,10.27
2018-04-08T07:59:43.103Z,9.70
2018-04-08T08:02:10.649Z,10.90
2018-04-08T08:04:38.147Z,10.67
2018-04-08T08:07:05.742Z,10.20
2018-04-08T08:09:33.372Z,9.30
2018-04-08T08:12:00.920Z,10.20
2018-04-08T08:14:28.468Z,10.40
2018-04-08T08:16:56.398Z,10.10
2018-04-08T08:19:23.941Z,8.80
2018-04-08T08:21:52.288Z,9.80
2018-04-08T08:24:19.843Z,9.70
2018-04-08T08:26:47.408Z,10.00
2018-04-08T08:29:14.966Z,11.80
2018-04-08T08:31:42.539Z,10.83
2018-04-08T08:34:10.160Z,10.97
2018-04-08T08:36:37.677Z,9.90
2018-04-08T08:39:06.477Z,10.50
2018-04-08T08:41:35.111Z,10.77
2018-04-08T08:44:03.192Z,10.10
2018-04-08T08:46:31.312Z,10.07
2018-04-08T08:48:58.891Z,12.47
2018-04-08T08:51:26.633Z,11.33
2018-04-08T08:53:55.421Z,10.70
2018-04-08T08:56:23.000Z,10.17
2018-04-08T08:58:50.606Z,11.30
2018-04-08T09:01:18.938Z,9.93
2018-04-08T09:03:46.900Z,11.30
2018-04-08T09:06:14.561Z,9.57
2018-04-08T09:08:42.160Z,10.77
2018-04-08T09:11:09.708Z,10.07
2018-04-08T09:13:37.229Z,10.67
2018-04-08T09:16:15.579Z,10.63
2018-04-08T09:19:04.343Z,10.50
2018-04-08T09:21:40.259Z,10.90
2018-04-08T09:24:09.985Z,11.07
2018-04-08T09:26:41.461Z,10.90
2018-04-08T09:29:10.754Z,11.77
2018-04-08T09:31:39.425Z,9.83
2018-04-08T09:34:07.086Z,11.13
2018-04-08T09:36:34.823Z,12.73
2018-04-08T09:39:02.427Z,10.80
2018-04-08T09:41:29.998Z,12.23
2018-04-08T09:43:57.600Z,14.17
2018-04-08T09:46:25.102Z,11.80
2018-04-08T09:48:53.497Z,11.60
2018-04-08T09:51:22.095Z,11.73
2018-04-08T09:53:49.697Z,11.33
2018-04-08T09:56:17.225Z,11.50
2018-04-08T09:58:44.850Z,13.67
2018-04-08T10:01:17.912Z,12.03
2018-04-08T10:03:49.864Z,12.97
2018-04-08T10:06:17.370Z,11.40
2018-04-08T10:08:49.152Z,13.07
2018-04-08T10:11:16.885Z,11.80
2018-04-08T10:13:45.173Z,13.13
2018-04-08T10:16:12.857Z,13.93
2018-04-08T10:18:40.713Z,12.27
2018-04-08T10:21:08.611Z,14.37
2018-04-08T10:23:36.872Z,12.70
2018-04-08T10:26:05.907Z,13.00
2018-04-08T10:28:34.494Z,14.27
2018-04-08T10:31:13.810Z,12.67
2018-04-08T10:33:41.325Z,13.90
2018-04-08T10:36:10.492Z,14.07
2018-04-08T10:38:39.009Z,16.63
2018-04-08T10:41:06.898Z,14.63
2018-04-08T10:43:34.662Z,13.27
2018-04-08T10:46:02.587Z,13.47
2018-04-08T10:48:31.266Z,13.90
2018-04-08T10:50:59.938Z,20.67
2018-04-08T10:53:28.317Z,14.18
2018-04-08T10:55:56.648Z,13.40
2018-04-08T10:58:24.177Z,15.60
2018-04-08T11:00:51.740Z,14.65
2018-04-08T11:03:19.378Z,15.15
2018-04-08T11:05:46.920Z,13.98
2018-04-08T11:08:15.870Z,13.68
2018-04-08T11:10:43.424Z,14.45
2018-04-08T11:13:10.966Z,13.10
2018-04-08T11:15:38.529Z,14.53
2018-04-08T11:18:06.051Z,15.00
2018-04-08T11:20:33.577Z,14.97
2018-04-08T11:23:01.160Z,13.37
2018-04-08T11:25:29.433Z,13.77
2018-04-08T11:27:57.761Z,14.07
2018-04-08T11:30:25.282Z,14.50
2018-04-08T11:32:52.822Z,14.27
2018-04-08T11:35:20.378Z,12.67
2018-04-08T11:37:48.727Z,14.60
2018-04-08T11:40:16.273Z,13.43
2018-04-08T11:42:43.901Z,12.90
2018-04-08T11:45:11.430Z,13.53
2018-04-08T11:47:39.719Z,12.77
2018-04-08T11:50:08.128Z,15.20
2018-04-08T11:52:35.643Z,13.63
2018-04-08T11:55:03.348Z,14.43
2018-04-08T11:57:30.883Z,13.97
2018-04-08T11:59:58.471Z,12.17
2018-04-08T12:02:25.995Z,12.77
2018-04-08T12:04:53.578Z,13.70
2018-04-08T12:07:21.101Z,13.57
2018-04-08T12:09:49.394Z,13.33
2018-04-08T12:12:17.248Z,13.40
2018-04-08T12:14:44.997Z,13.20
2018-04-08T12:17:12.498Z,13.70
2018-04-08T12:19:40.114Z,12.70
2018-04-08T12:22:08.395Z,12.87
2018-04-08T12:24:36.722Z,13.50
2018-04-08T12:27:06.609Z,12.90
2018-04-08T12:29:34.119Z,15.03
2018-04-08T12:32:01.653Z,13.93
2018-04-08T12:34:29.198Z,14.40
2018-04-08T12:36:56.738Z,12.90
2018-04-08T12:39:24.299Z,14.10
2018-04-08T12:41:51.907Z,13.23
2018-04-08T12:44:19.805Z,12.73
2018-04-08T12:46:48.096Z,12.93
2018-04-08T12:49:15.634Z,11.37
2018-04-08T12:51:44.052Z,13.27
2018-04-08T12:54:11.707Z,12.93
2018-04-08T12:56:40.471Z,12.70
2018-04-08T12:59:08.774Z,12.50
2018-04-08T13:01:36.615Z,12.23
2018-04-08T13:04:05.773Z,13.40
2018-04-08T13:06:34.086Z,11.83
2018-04-08T13:09:01.765Z,14.03
2018-04-08T13:11:29.535Z,12.37
2018-04-08T13:13:57.158Z,13.47
2018-04-08T13:16:25.636Z,13.17
2018-04-08T13:18:53.312Z,13.00
2018-04-08T13:21:21.596Z,12.07
2018-04-08T13:23:49.463Z,11.87
2018-04-08T13:26:17.149Z,11.03
2018-04-08T13:28:44.774Z,11.33
2018-04-08T13:31:13.076Z,9.77
2018-04-08T13:33:40.728Z,10.77
2018-04-08T13:36:08.249Z,9.57
2018-04-08T13:38:36.611Z,10.43
2018-04-08T13:41:04.191Z,10.17
2018-04-08T13:43:31.730Z,9.20
2018-04-08T13:45:59.285Z,9.30
2018-04-08T13:48:26.801Z,8.83
2018-04-08T13:50:54.360Z,8.70
2018-04-08T13:53:21.946Z,7.53
2018-04-08T13:55:49.473Z,10.10
2018-04-08T13:58:17.018Z,9.10
2018-04-08T14:00:44.526Z,8.83
2018-04-08T14:03:12.063Z,7.97
2018-04-08T14:05:39.659Z,6.60
2018-04-08T14:08:07.210Z,6.57
2018-04-08T14:10:34.761Z,8.40
2018-04-08T14:13:02.276Z,7.90
2018-04-08T14:15:29.809Z,7.07
2018-04-08T14:17:58.092Z,6.90
2018-04-08T14:20:25.611Z,6.37
2018-04-08T14:22:53.167Z,6.40
2018-04-08T14:25:20.727Z,6.10
2018-04-08T14:27:48.272Z,6.93
2018-04-08T14:30:15.782Z,5.00
2018-04-08T14:32:43.300Z,6.10
2018-04-08T14:35:12.375Z,4.93
2018-04-08T14:37:39.907Z,7.70
2018-04-08T14:40:07.468Z,4.73
2018-04-08T14:42:35.028Z,4.47
2018-04-08T14:45:02.534Z,4.90
2018-04-08T14:47:30.106Z,4.10
2018-04-08T14:49:58.443Z,4.70
2018-04-08T14:52:25.983Z,4.30
2018-04-08T14:54:53.555Z,4.10
2018-04-08T14:57:21.111Z,4.90
2018-04-08T14:59:48.625Z,3.90
2018-04-08T15:02:16.944Z,4.37
2018-04-08T15:04:44.507Z,4.40
2018-04-08T15:07:12.102Z,4.47
2018-04-08T15:09:39.626Z,3.70
2018-04-08T15:12:07.742Z,4.10
2018-04-08T15:14:36.021Z,3.77
2018-04-08T15:17:03.895Z,4.20
2018-04-08T15:19:32.280Z,4.20
2018-04-08T15:21:59.766Z,3.53
2018-04-08T15:24:27.278Z,3.67
2018-04-08T15:26:55.575Z,4.10
2018-04-08T15:29:23.399Z,3.67
2018-04-08T15:31:50.934Z,3.23
2018-04-08T15:34:18.466Z,3.30
2018-04-08T15:36:46.021Z,2.70
2018-04-08T15:39:13.542Z,3.20
2018-04-08T15:41:41.107Z,3.20
2018-04-08T15:44:09.420Z,3.40
2018-04-08T15:46:36.936Z,3.13
2018-04-08T15:49:04.488Z,3.60
2018-04-08T15:51:32.045Z,4.17
2018-04-08T15:53:59.579Z,3.17
2018-04-08T15:56:27.082Z,4.33
2018-04-08T15:58:54.634Z,3.93
2018-04-08T16:01:22.966Z,3.50
2018-04-08T16:03:50.508Z,3.30
2018-04-08T16:06:18.062Z,4.33
2018-04-08T16:08:45.582Z,3.37
2018-04-08T16:11:13.886Z,3.10
2018-04-08T16:13:41.404Z,3.33
2018-04-08T16:16:09.677Z,3.53
2018-04-08T16:18:38.077Z,3.57
2018-04-08T16:21:06.341Z,3.83
2018-04-08T16:23:34.692Z,3.90
2018-04-08T16:26:02.568Z,3.30
2018-04-08T16:28:30.969Z,3.40
2018-04-08T16:30:59.299Z,3.73
2018-04-08T16:33:26.807Z,3.93
2018-04-08T16:35:54.344Z,3.70
2018-04-08T16:38:22.655Z,3.70
2018-04-08T16:40:50.153Z,3.13
2018-04-08T16:43:17.871Z,4.90
2018-04-08T16:45:45.426Z,3.70
2018-04-08T16:48:12.989Z,4.10
2018-04-08T16:50:40.538Z,3.50
2018-04-08T16:53:08.742Z,3.70
2018-04-08T16:55:36.523Z,3.53
2018-04-08T16:58:04.981Z,3.23
2018-04-08T17:00:32.504Z,3.43
2018-04-08T17:03:00.819Z,3.37
2018-04-08T17:05:28.423Z,3.30
2018-04-08T17:07:55.931Z,3.57
2018-04-08T17:10:23.487Z,3.60
2018-04-08T17:12:51.001Z,4.10
2018-04-08T17:15:19.419Z,3.60
2018-04-08T17:17:46.942Z,3.90
2018-04-08T17:20:15.230Z,3.70
2018-04-08T17:22:42.832Z,3.43
2018-04-08T17:25:10.332Z,3.83
2018-04-08T17:27:37.874Z,3.43
2018-04-08T17:30:05.402Z,4.30
2018-04-08T17:32:33.229Z,3.67
2018-04-08T17:35:00.809Z,4.43
2018-04-08T17:37:28.295Z,3.97
2018-04-08T17:39:55.846Z,5.10
2018-04-08T17:42:23.371Z,6.03
2018-04-08T17:44:50.930Z,6.23
2018-04-08T17:47:18.451Z,7.67
2018-04-08T17:49:46.942Z,6.30
2018-04-08T17:52:15.252Z,7.30
2018-04-08T17:54:42.858Z,6.60
2018-04-08T17:57:10.388Z,7.70
2018-04-08T17:59:37.930Z,6.97
2018-04-08T18:02:05.533Z,8.17
2018-04-08T18:04:33.812Z,6.00
2018-04-08T18:07:01.388Z,6.60
2018-04-08T18:09:29.704Z,7.93
2018-04-08T18:11:57.224Z,7.60
2018-04-08T18:14:25.519Z,7.23
2018-04-08T18:16:53.036Z,7.97
2018-04-08T18:19:20.701Z,7.70
2018-04-08T18:21:48.225Z,7.07
2018-04-08T18:24:15.743Z,10.00
2018-04-08T18:26:43.300Z,37.43
2018-04-08T18:29:11.582Z,10.10
2018-04-08T18:31:39.098Z,10.93
2018-04-08T18:34:06.602Z,11.90
2018-04-08T18:36:34.142Z,10.70
2018-04-08T18:39:02.505Z,11.17
2018-04-08T18:41:30.051Z,10.73
2018-04-08T18:43:57.621Z,9.17
2018-04-08T18:46:25.918Z,9.80
2018-04-08T18:48:53.444Z,10.77
2018-04-08T18:51:21.009Z,10.13
2018-04-08T18:53:48.494Z,10.17
2018-04-08T18:56:16.053Z,83.17
2018-04-08T19:01:17.755Z,257.33
2018-04-08T19:03:46.222Z,157.27
2018-04-08T19:06:13.776Z,207.80
2018-04-08T19:08:41.288Z,22.63
2018-04-08T19:11:09.616Z,9.50
2018-04-08T19:13:37.138Z,11.80
2018-04-08T19:16:05.457Z,9.23
2018-04-08T19:18:32.945Z,10.20
2018-04-08T19:21:01.302Z,10.70
2018-04-08T19:23:28.877Z,9.60
2018-04-08T19:25:56.419Z,10.40
2018-04-08T19:28:23.946Z,9.80
2018-04-08T19:30:51.470Z,9.90
2018-04-08T19:33:19.159Z,10.27
2018-04-08T19:35:46.693Z,8.60
2018-04-08T19:38:15.054Z,8.07
2018-04-08T19:40:42.545Z,8.30
2018-04-08T19:43:10.831Z,8.57
2018-04-08T19:45:38.373Z,8.00
2018-04-08T19:48:06.766Z,8.17
2018-04-08T19:50:34.337Z,8.47
2018-04-08T19:53:01.916Z,7.20
2018-04-08T19:55:29.571Z,7.83
2018-04-08T19:57:57.110Z,9.67
2018-04-08T20:00:24.849Z,8.20
2018-04-08T20:02:53.123Z,8.97
2018-04-08T20:05:22.364Z,9.30
2018-04-08T20:07:49.892Z,9.80
2018-04-08T20:10:17.454Z,11.20
2018-04-08T20:12:45.022Z,8.00
2018-04-08T20:15:12.532Z,8.73
2018-04-08T20:17:40.090Z,7.83
2018-04-08T20:20:07.634Z,7.57
2018-04-08T20:22:35.144Z,7.70
2018-04-08T20:25:02.686Z,7.40
2018-04-08T20:27:30.986Z,7.10
2018-04-08T20:29:59.577Z,7.37
2018-04-08T20:32:27.117Z,7.13
2018-04-08T20:34:54.639Z,7.80
2018-04-08T20:37:22.179Z,5.97
2018-04-08T20:39:49.722Z,7.30
2018-04-08T20:42:17.248Z,7.90
2018-04-08T20:44:44.787Z,7.00
2018-04-08T20:47:12.334Z,7.00
2018-04-08T20:49:40.618Z,6.50
2018-04-08T20:52:09.034Z,6.60
2018-04-08T20:54:36.738Z,6.73
2018-04-08T20:57:04.272Z,6.40
2018-04-08T20:59:32.110Z,6.70
2018-04-08T21:01:59.636Z,5.77
2018-04-08T21:04:28.012Z,5.67
2018-04-08T21:06:56.746Z,7.20
2018-04-08T21:09:24.260Z,7.03
2018-04-08T21:11:52.579Z,7.17
2018-04-08T21:14:20.100Z,6.93
2018-04-08T21:16:48.396Z,7.60
2018-04-08T21:19:15.918Z,7.57
2018-04-08T21:21:44.279Z,7.33
2018-04-08T21:24:11.767Z,7.10
2018-04-08T21:26:40.073Z,7.97
2018-04-08T21:29:07.588Z,8.07
2018-04-08T21:31:35.092Z,6.80
2018-04-08T21:34:02.622Z,7.60
2018-04-08T21:36:30.142Z,6.47
2018-04-08T21:38:57.663Z,6.90
2018-04-08T21:41:25.213Z,6.13
2018-04-08T21:43:52.733Z,6.83
2018-04-08T21:46:20.241Z,6.50
2018-04-08T21:48:47.788Z,7.67
2018-04-08T21:51:15.298Z,7.10
2018-04-08T21:53:43.598Z,6.33
2018-04-08T21:56:11.123Z,6.10
2018-04-08T21:58:38.669Z,6.37
2018-04-08T22:01:06.174Z,6.23
2018-04-08T22:03:33.692Z,6.67
2018-04-08T22:06:01.244Z,6.03
2018-04-08T22:08:28.738Z,5.93
2018-04-08T22:10:57.059Z,5.80
2018-04-08T22:13:24.602Z,6.20
2018-04-08T22:15:52.114Z,5.87
2018-04-08T22:18:20.402Z,5.37
2018-04-08T22:20:48.661Z,6.57
2018-04-08T22:23:16.958Z,6.30
2018-04-08T22:25:45.237Z,6.23
2018-04-08T22:28:13.525Z,5.63
2018-04-08T22:30:41.071Z,5.87
2018-04-08T22:33:08.582Z,5.70
2018-04-08T22:35:36.119Z,6.60
2018-04-08T22:38:03.694Z,6.37
2018-04-08T22:40:32.064Z,6.10
2018-04-08T22:42:59.591Z,6.37
2018-04-08T22:45:27.135Z,5.93
2018-04-08T22:47:54.668Z,6.80
2018-04-08T22:50:22.213Z,7.00
2018-04-08T22:52:49.750Z,6.43
2018-04-08T22:55:17.306Z,6.50
2018-04-08T22:57:44.828Z,6.67
2018-04-08T23:00:13.259Z,6.83
2018-04-08T23:02:40.842Z,6.10
2018-04-08T23:05:09.174Z,7.00
2018-04-08T23:07:36.726Z,6.43
2018-04-08T23:10:04.424Z,6.80
2018-04-08T23:12:32.209Z,6.50
2018-04-08T23:15:00.509Z,5.10
2018-04-08T23:17:28.112Z,6.53
2018-04-08T23:19:55.650Z,6.20
2018-04-08T23:22:23.715Z,5.43
2018-04-08T23:24:51.267Z,6.20
2018-04-08T23:27:18.790Z,6.03
2018-04-08T23:29:47.101Z,6.73
2018-04-08T23:32:14.696Z,5.27
2018-04-08T23:34:42.243Z,6.70
2018-04-08T23:37:09.749Z,6.63
2018-04-08T23:39:38.017Z,5.80
2018-04-08T23:42:06.611Z,6.33
2018-04-08T23:44:34.874Z,6.30
2018-04-08T23:47:03.286Z,6.00
2018-04-08T23:49:30.798Z,7.47
2018-04-08T23:51:58.315Z,6.10
2018-04-08T23:54:25.855Z,6.00
2018-04-08T23:56:53.358Z,5.53
2018-04-08T23:59:20.879Z,5.23
